Time;durP1;ratioP1;P1;durP2;ratioP2;P2;SDS_P1;SDS_P2;PMS_P1;PMS_P2;Temp;Humidity;BMP_temperature;BMP_pressure;BME280_temperature;BME280_humidity;BME280_pressure;Samples;Min_cycle;Max_cycle;Signal;HPM_P1;HPM_P2
2022/10/10 00:00:40;;;;;;;;;;;21.80;43.00;20.60;101189.00;;;;5102992;28;19956;-66
2022/10/10 00:03:26;;;;;;;;;;;21.80;43.00;20.60;101182.00;;;;5102384;28;20410;-66
2022/10/10 00:06:12;;;;;;;;;;;21.80;43.00;20.60;101183.00;;;;5101262;28;19991;-66
2022/10/10 00:08:58;;;;;;;;;;;21.80;43.00;20.60;101176.00;;;;5083748;28;19920;-66
2022/10/10 00:11:44;;;;;;;;;;;21.80;43.10;20.60;101183.00;;;;5099020;28;19923;-66
2022/10/10 00:14:30;;;;;;;;;;;21.80;43.00;20.60;101186.00;;;;5101394;28;19932;-66
2022/10/10 00:17:16;;;;;;;;;;;21.80;43.00;20.50;101180.00;;;;5102587;28;19961;-66
2022/10/10 00:20:02;;;;;;;;;;;21.80;43.00;20.50;101182.00;;;;5099035;28;19970;-66
2022/10/10 00:22:48;;;;;;;;;;;21.70;43.00;20.50;101172.00;;;;5101695;28;20353;-66
2022/10/10 00:25:35;;;;;;;;;;;21.70;43.00;20.50;101181.00;;;;5075366;28;19961;-66
2022/10/10 00:28:21;;;;;;;;;;;21.70;43.00;20.50;101179.00;;;;5079658;28;19916;-66
2022/10/10 00:31:07;;;;;;;;;;;21.70;43.00;20.50;101172.00;;;;5083706;28;19916;-67
2022/10/10 00:33:53;;;;;;;;;;;21.70;43.00;20.50;101173.00;;;;5084036;28;20380;-66
2022/10/10 00:36:39;;;;;;;;;;;21.70;43.00;20.50;101176.00;;;;5080007;28;19924;-67
2022/10/10 00:39:25;;;;;;;;;;;21.70;43.00;20.50;101167.00;;;;5082399;28;19920;-66
2022/10/10 00:42:12;;;;;;;;;;;21.70;43.00;20.50;101171.00;;;;5079459;28;19928;-66
2022/10/10 00:45:31;;;;;;;;;;;21.70;43.00;20.50;101170.00;;;;5058172;28;19916;-66
2022/10/10 00:48:24;;;;;;;;;;;21.70;43.00;20.50;101172.00;;;;5083978;28;19920;-66
2022/10/10 00:51:13;;;;;;;;;;;21.70;43.00;20.50;101170.00;;;;5077083;28;19925;-66
2022/10/10 00:54:01;;;;;;;;;;;21.70;43.00;20.50;101169.00;;;;5053920;28;19920;-66
2022/10/10 00:57:08;;;;;;;;;;;21.70;43.00;20.50;101168.00;;;;5083235;28;19943;-66
2022/10/10 00:59:53;;;;;;;;;;;21.70;43.00;20.50;101164.00;;;;5078443;28;19969;-67
2022/10/10 01:02:39;;;;;;;;;;;21.80;43.10;20.50;101164.00;;;;5081709;28;19993;-66
2022/10/10 01:05:26;;;;;;;;;;;21.70;43.00;20.50;101168.00;;;;5082764;28;19916;-67
2022/10/10 01:08:12;;;;;;;;;;;21.70;43.00;20.50;101168.00;;;;5080982;28;20096;-66
2022/10/10 01:11:21;;;;;;;;;;;21.70;43.00;20.50;101168.00;;;;5068168;28;19916;-66
2022/10/10 01:14:29;;;;;;;;;;;21.70;43.00;20.50;101161.00;;;;5091861;28;19916;-67
2022/10/10 01:17:51;;;;;;;;;;;21.70;43.00;20.50;101163.00;;;;5088613;28;19938;-66
2022/10/10 01:20:49;;;;;;;;;;;21.70;43.00;20.50;101152.00;;;;5076137;28;19927;-66
2022/10/10 01:24:17;;;;;;;;;;;21.60;43.00;20.50;101159.00;;;;5118641;27;20352;-66
2022/10/10 01:27:14;;;;;;;;;;;21.70;43.00;20.40;101151.00;;;;5090387;28;19924;-66
2022/10/10 01:30:08;;;;;;;;;;;21.70;43.10;20.40;101150.00;;;;5075895;28;19930;-66
2022/10/10 01:33:06;;;;;;;;;;;21.60;43.00;20.40;101151.00;;;;5086607;28;19923;-66
2022/10/10 01:36:01;;;;;;;;;;;21.70;43.00;20.40;101148.00;;;;5102129;28;19974;-66
2022/10/10 01:39:05;;;;;;;;;;;21.60;43.00;20.40;101145.00;;;;5086541;28;19920;-67
2022/10/10 01:42:04;;;;;;;;;;;21.70;43.00;20.40;101136.00;;;;5093878;28;19916;-66
2022/10/10 01:44:52;;;;;;;;;;;21.60;43.00;20.40;101130.00;;;;5057876;28;20392;-66
2022/10/10 01:47:38;;;;;;;;;;;21.60;43.00;20.40;101133.00;;;;5088322;28;19920;-66
2022/10/10 01:50:24;;;;;;;;;;;21.60;42.90;20.40;101133.00;;;;5085885;28;19920;-66
2022/10/10 01:53:15;;;;;;;;;;;21.60;43.00;20.40;101129.00;;;;5085816;28;19924;-66
2022/10/10 01:56:19;;;;;;;;;;;21.70;43.00;20.40;101137.00;;;;5070001;28;19920;-67
2022/10/10 01:59:16;;;;;;;;;;;21.60;43.00;20.40;101132.00;;;;5079893;28;19927;-66
2022/10/10 02:02:04;;;;;;;;;;;21.60;43.70;20.40;101130.00;;;;5081161;28;19920;-66
2022/10/10 02:05:03;;;;;;;;;;;21.60;43.00;20.40;101113.00;;;;5085894;28;20395;-66
2022/10/10 02:08:10;;;;;;;;;;;21.60;43.00;20.40;101113.00;;;;5070717;28;20305;-66
2022/10/10 02:11:04;;;;;;;;;;;21.60;43.00;20.40;101123.00;;;;5095067;28;19982;-66
2022/10/10 02:13:53;;;;;;;;;;;21.60;43.00;20.40;101114.00;;;;5115644;27;19927;-66
2022/10/10 02:16:40;;;;;;;;;;;21.60;43.00;20.40;101111.00;;;;5101200;28;19915;-66
2022/10/10 02:19:26;;;;;;;;;;;21.60;43.00;20.40;101104.00;;;;5099402;28;20432;-66
2022/10/10 02:22:12;;;;;;;;;;;21.60;42.90;20.40;101104.00;;;;5086258;28;20018;-66
2022/10/10 02:24:58;;;;;;;;;;;21.60;43.00;20.40;101103.00;;;;5075061;28;19915;-66
2022/10/10 02:28:14;;;;;;;;;;;21.60;43.00;20.40;101106.00;;;;5116378;27;20257;-66
2022/10/10 02:31:02;;;;;;;;;;;21.60;43.00;20.40;101107.00;;;;5089114;28;20420;-66
2022/10/10 02:33:51;;;;;;;;;;;21.60;43.00;20.40;101101.00;;;;5083975;28;19916;-66
2022/10/10 02:36:37;;;;;;;;;;;21.60;43.00;20.40;101095.00;;;;5095483;27;19920;-66
2022/10/10 02:39:26;;;;;;;;;;;21.60;43.00;20.40;101091.00;;;;5068917;28;19921;-66
2022/10/10 02:42:12;;;;;;;;;;;21.60;43.00;20.40;101093.00;;;;5084750;28;19916;-66
2022/10/10 02:44:58;;;;;;;;;;;21.60;42.90;20.40;101087.00;;;;5052974;28;20007;-66
2022/10/10 02:47:44;;;;;;;;;;;21.60;43.00;20.40;101080.00;;;;5066467;28;19924;-66
2022/10/10 02:50:30;;;;;;;;;;;21.60;42.90;20.40;101087.00;;;;5097462;28;19928;-66
2022/10/10 02:53:16;;;;;;;;;;;21.60;42.90;20.40;101094.00;;;;5095077;28;19920;-66
2022/10/10 02:56:02;;;;;;;;;;;21.50;42.90;20.40;101082.00;;;;5080538;28;19919;-67
2022/10/10 02:58:48;;;;;;;;;;;21.50;42.90;20.30;101079.00;;;;5096598;27;20373;-66
2022/10/10 03:01:34;;;;;;;;;;;21.50;42.90;20.30;101076.00;;;;5084796;28;19921;-66
2022/10/10 03:04:20;;;;;;;;;;;21.50;42.90;20.30;101076.00;;;;5067859;28;20032;-66
2022/10/10 03:07:06;;;;;;;;;;;21.50;42.90;20.30;101074.00;;;;5082977;28;20374;-66
2022/10/10 03:09:52;;;;;;;;;;;21.60;42.90;20.30;101074.00;;;;5084741;28;19916;-66
2022/10/10 03:12:38;;;;;;;;;;;21.50;42.90;20.30;101066.00;;;;5080888;28;19920;-66
2022/10/10 03:15:24;;;;;;;;;;;21.60;42.90;20.30;101066.00;;;;5083061;28;19923;-66
2022/10/10 03:18:10;;;;;;;;;;;21.50;42.90;20.30;101062.00;;;;5084693;28;19928;-66
2022/10/10 03:20:56;;;;;;;;;;;21.50;42.80;20.30;101057.00;;;;5080596;28;19952;-66
2022/10/10 03:23:42;;;;;;;;;;;21.50;42.90;20.30;101058.00;;;;5085403;28;20388;-66
2022/10/10 03:26:28;;;;;;;;;;;21.50;42.90;20.30;101052.00;;;;5083635;28;19920;-66
2022/10/10 03:29:14;;;;;;;;;;;21.50;42.80;20.30;101058.00;;;;5083919;28;20285;-66
2022/10/10 03:32:00;;;;;;;;;;;21.50;42.80;20.30;101049.00;;;;5083150;28;19920;-66
2022/10/10 03:34:46;;;;;;;;;;;21.40;42.80;20.30;101059.00;;;;5073532;28;19920;-66
2022/10/10 03:37:32;;;;;;;;;;;21.50;42.90;20.30;101051.00;;;;5077726;28;19990;-66
2022/10/10 03:40:18;;;;;;;;;;;21.50;42.90;20.30;101055.00;;;;5080743;28;20354;-67
2022/10/10 03:43:04;;;;;;;;;;;21.50;42.90;20.30;101058.00;;;;5082875;28;20361;-66
2022/10/10 03:45:50;;;;;;;;;;;21.50;42.80;20.30;101046.00;;;;5079525;28;19972;-66
2022/10/10 03:48:36;;;;;;;;;;;21.50;42.80;20.30;101041.00;;;;5081037;28;19923;-66
2022/10/10 03:51:22;;;;;;;;;;;21.50;42.80;20.30;101051.00;;;;5081051;28;19956;-66
2022/10/10 03:54:08;;;;;;;;;;;21.50;42.80;20.30;101039.00;;;;5081281;28;19923;-66
2022/10/10 03:56:54;;;;;;;;;;;21.50;42.80;20.30;101041.00;;;;5092450;28;19930;-66
2022/10/10 03:59:40;;;;;;;;;;;21.50;42.80;20.30;101039.00;;;;5078936;28;19924;-66
2022/10/10 04:02:26;;;;;;;;;;;21.50;42.80;20.30;101035.00;;;;5079917;28;19916;-66
2022/10/10 04:05:12;;;;;;;;;;;21.50;42.80;20.30;101045.00;;;;5079809;28;19958;-66
2022/10/10 04:07:58;;;;;;;;;;;21.40;42.80;20.20;101043.00;;;;5083875;28;19982;-66
2022/10/10 04:10:47;;;;;;;;;;;21.50;42.80;20.20;101029.00;;;;5066782;28;19939;-66
2022/10/10 04:13:33;;;;;;;;;;;21.40;42.80;20.20;101028.00;;;;5080661;28;20258;-66
2022/10/10 04:16:19;;;;;;;;;;;21.40;42.80;20.20;101026.00;;;;5083156;28;19973;-66
2022/10/10 04:19:05;;;;;;;;;;;21.40;42.80;20.20;101023.00;;;;5092579;28;19924;-66
2022/10/10 04:21:51;;;;;;;;;;;21.40;42.80;20.20;101017.00;;;;5081316;28;19931;-66
2022/10/10 04:24:37;;;;;;;;;;;21.40;42.80;20.20;101016.00;;;;5080695;28;19923;-66
2022/10/10 04:27:23;;;;;;;;;;;21.40;42.80;20.20;101019.00;;;;5085241;28;19916;-66
2022/10/10 04:30:09;;;;;;;;;;;21.40;42.80;20.20;101024.00;;;;5084003;28;19928;-66
2022/10/10 04:32:55;;;;;;;;;;;21.40;42.70;20.20;101023.00;;;;5084107;28;20301;-66
2022/10/10 04:35:42;;;;;;;;;;;21.40;42.80;20.20;101021.00;;;;5077423;28;20392;-66
2022/10/10 04:38:28;;;;;;;;;;;21.40;42.80;20.20;101016.00;;;;5082989;28;20007;-66
2022/10/10 04:41:14;;;;;;;;;;;21.40;42.80;20.20;101015.00;;;;5067796;28;19927;-66
2022/10/10 04:44:00;;;;;;;;;;;21.40;42.80;20.20;101020.00;;;;5080481;28;19947;-66
2022/10/10 04:46:46;;;;;;;;;;;21.40;42.80;20.20;101009.00;;;;5068827;28;19956;-66
2022/10/10 04:49:32;;;;;;;;;;;21.40;42.80;20.20;101012.00;;;;5081698;28;19924;-66
2022/10/10 04:52:18;;;;;;;;;;;21.40;42.80;20.20;101014.00;;;;5084143;28;19920;-66
2022/10/10 04:55:04;;;;;;;;;;;21.40;42.80;20.20;101019.00;;;;5081130;28;19971;-66
2022/10/10 04:57:50;;;;;;;;;;;21.40;42.80;20.20;101014.00;;;;5085802;28;19920;-66
2022/10/10 05:00:37;;;;;;;;;;;21.40;42.80;20.20;101010.00;;;;5091687;28;19931;-66
2022/10/10 05:03:24;;;;;;;;;;;21.40;42.80;20.20;101011.00;;;;5069618;28;20021;-66
2022/10/10 05:06:10;;;;;;;;;;;21.40;42.80;20.20;101003.00;;;;5098391;28;19928;-66
2022/10/10 05:08:56;;;;;;;;;;;21.40;42.80;20.20;101001.00;;;;5078854;28;19920;-66
2022/10/10 05:11:42;;;;;;;;;;;21.40;42.80;20.20;101007.00;;;;5079171;28;19920;-66
2022/10/10 05:14:28;;;;;;;;;;;21.40;42.80;20.20;101007.00;;;;5079437;28;19937;-66
2022/10/10 05:17:14;;;;;;;;;;;21.40;42.80;20.10;101003.00;;;;5081648;28;19928;-66
2022/10/10 05:20:00;;;;;;;;;;;21.40;42.70;20.20;101003.00;;;;5072110;28;19924;-66
2022/10/10 05:22:46;;;;;;;;;;;21.40;42.80;20.20;101004.00;;;;5080337;28;19920;-66
2022/10/10 05:25:32;;;;;;;;;;;21.40;42.80;20.10;101009.00;;;;5083749;28;19916;-66
2022/10/10 05:28:18;;;;;;;;;;;21.40;42.80;20.10;101002.00;;;;5093735;28;19924;-66
2022/10/10 05:31:05;;;;;;;;;;;21.40;42.80;20.10;100997.00;;;;5079626;28;19920;-66
2022/10/10 05:33:51;;;;;;;;;;;21.40;42.80;20.10;101000.00;;;;5087967;28;19927;-66
2022/10/10 05:36:37;;;;;;;;;;;21.30;42.70;20.10;100993.00;;;;5076335;28;19977;-66
2022/10/10 05:39:23;;;;;;;;;;;21.30;42.70;20.10;100996.00;;;;5079874;28;19920;-66
2022/10/10 05:42:09;;;;;;;;;;;21.30;42.70;20.10;100991.00;;;;5074973;28;20239;-66
2022/10/10 05:44:55;;;;;;;;;;;21.30;42.70;20.10;100999.00;;;;5073270;28;19924;-66
2022/10/10 05:47:41;;;;;;;;;;;21.40;42.70;20.10;100987.00;;;;5056392;28;19931;-66
2022/10/10 05:50:33;;;;;;;;;;;21.40;42.80;20.10;100988.00;;;;5075907;28;19938;-66
2022/10/10 05:53:20;;;;;;;;;;;21.30;42.70;20.10;100988.00;;;;5093537;28;19916;-66
2022/10/10 05:56:06;;;;;;;;;;;21.30;42.70;20.10;101005.00;;;;5066835;28;19924;-66
2022/10/10 05:58:52;;;;;;;;;;;21.30;42.70;20.10;101004.00;;;;5081179;28;19998;-66
2022/10/10 06:01:38;;;;;;;;;;;21.30;42.70;20.10;101002.00;;;;5086671;28;19916;-66
2022/10/10 06:04:24;;;;;;;;;;;21.30;42.70;20.10;101002.00;;;;5084317;28;19916;-67
2022/10/10 06:07:10;;;;;;;;;;;21.30;42.70;20.10;100994.00;;;;5083386;28;19930;-66
2022/10/10 06:09:56;;;;;;;;;;;21.30;42.70;20.10;101000.00;;;;5085330;28;19931;-66
2022/10/10 06:12:42;;;;;;;;;;;21.30;42.70;20.10;101007.00;;;;5085809;28;19943;-66
2022/10/10 06:15:28;;;;;;;;;;;21.30;42.70;20.10;101006.00;;;;5084007;28;20119;-66
2022/10/10 06:18:14;;;;;;;;;;;21.30;42.70;20.10;101004.00;;;;5084201;28;19997;-66
2022/10/10 06:21:04;;;;;;;;;;;21.30;42.70;20.10;100996.00;;;;5082069;28;19924;-66
2022/10/10 06:23:50;;;;;;;;;;;21.30;42.70;20.10;101005.00;;;;5082974;28;19947;-66
2022/10/10 06:26:36;;;;;;;;;;;21.30;42.70;20.10;100996.00;;;;5084687;28;19935;-67
2022/10/10 06:29:22;;;;;;;;;;;21.30;42.70;20.10;101001.00;;;;5085653;28;20328;-66
2022/10/10 06:32:08;;;;;;;;;;;21.30;42.70;20.10;101004.00;;;;5079862;28;19921;-66
2022/10/10 06:34:54;;;;;;;;;;;21.30;42.70;20.10;101000.00;;;;5082109;28;20200;-66
2022/10/10 06:37:40;;;;;;;;;;;21.20;42.70;20.10;100997.00;;;;5084307;28;20293;-66
2022/10/10 06:40:26;;;;;;;;;;;21.30;42.70;20.10;101000.00;;;;5082093;28;19927;-66
2022/10/10 06:43:13;;;;;;;;;;;21.20;42.70;20.10;101000.00;;;;5082928;28;19928;-66
2022/10/10 06:45:59;;;;;;;;;;;21.30;42.70;20.10;101001.00;;;;5083392;28;19916;-66
2022/10/10 06:48:45;;;;;;;;;;;21.30;42.70;20.10;101003.00;;;;5051494;28;19959;-66
2022/10/10 06:51:31;;;;;;;;;;;21.30;42.70;20.10;100991.00;;;;5083279;28;20331;-66
2022/10/10 06:54:17;;;;;;;;;;;21.30;42.70;20.10;101003.00;;;;5080845;28;20365;-67
2022/10/10 06:57:03;;;;;;;;;;;21.30;42.70;20.10;101002.00;;;;5083208;28;19966;-66
2022/10/10 06:59:49;;;;;;;;;;;21.30;42.70;20.10;101006.00;;;;5080903;28;19978;-66
2022/10/10 07:02:39;;;;;;;;;;;21.30;42.70;20.10;100998.00;;;;5083931;28;19920;-66
2022/10/10 07:05:25;;;;;;;;;;;21.30;42.70;20.10;101001.00;;;;5081062;28;20003;-66
2022/10/10 07:08:11;;;;;;;;;;;21.30;42.70;20.10;101008.00;;;;5083927;28;20331;-66
2022/10/10 07:10:57;;;;;;;;;;;21.30;42.70;20.10;100999.00;;;;5082746;28;20389;-66
2022/10/10 07:13:43;;;;;;;;;;;21.30;42.70;20.10;101001.00;;;;5084511;28;19917;-66
2022/10/10 07:16:29;;;;;;;;;;;21.30;42.70;20.10;101007.00;;;;5094177;27;20814;-66
2022/10/10 07:19:15;;;;;;;;;;;21.30;42.70;20.10;101002.00;;;;5077587;28;19921;-67
2022/10/10 07:22:01;;;;;;;;;;;21.30;42.70;20.10;101008.00;;;;5083781;28;20324;-66
2022/10/10 07:24:47;;;;;;;;;;;21.30;42.70;20.10;101014.00;;;;5085640;28;19920;-66
2022/10/10 07:27:33;;;;;;;;;;;21.30;42.70;20.10;101019.00;;;;5098200;28;20371;-66
2022/10/10 07:30:19;;;;;;;;;;;21.30;42.70;20.10;101024.00;;;;5074643;28;19999;-66
2022/10/10 07:33:05;;;;;;;;;;;21.30;42.70;20.10;101008.00;;;;5067771;28;19925;-66
2022/10/10 07:35:53;;;;;;;;;;;21.30;42.70;20.10;101011.00;;;;5065805;28;20067;-66
2022/10/10 07:38:39;;;;;;;;;;;21.30;42.70;20.10;101011.00;;;;5079541;28;20420;-66
2022/10/10 07:41:25;;;;;;;;;;;21.30;42.70;20.10;101014.00;;;;5081756;28;19951;-66
2022/10/10 07:44:11;;;;;;;;;;;21.30;42.70;20.10;101008.00;;;;5079373;28;19916;-66
2022/10/10 07:46:57;;;;;;;;;;;21.30;42.70;20.10;101012.00;;;;5066891;28;20355;-66
2022/10/10 07:49:43;;;;;;;;;;;21.30;42.70;20.10;101013.00;;;;5080207;28;19925;-66
2022/10/10 07:52:29;;;;;;;;;;;21.30;42.70;20.10;101007.00;;;;5082362;28;19973;-66
2022/10/10 07:55:15;;;;;;;;;;;21.30;42.70;20.10;101007.00;;;;5075704;28;19916;-66
2022/10/10 07:58:02;;;;;;;;;;;21.30;42.70;20.10;101009.00;;;;5081851;28;19916;-66
2022/10/10 08:00:48;;;;;;;;;;;21.30;42.70;20.10;101011.00;;;;5079371;28;19926;-66
2022/10/10 08:03:34;;;;;;;;;;;21.30;42.70;20.10;101010.00;;;;5080974;28;19916;-66
2022/10/10 08:06:20;;;;;;;;;;;21.30;42.70;20.10;101001.00;;;;5076641;28;19916;-66
2022/10/10 08:09:06;;;;;;;;;;;21.30;42.70;20.10;101016.00;;;;5076768;28;19924;-66
2022/10/10 08:11:52;;;;;;;;;;;21.30;42.70;20.10;101015.00;;;;5116392;27;19920;-66
2022/10/10 08:14:38;;;;;;;;;;;21.30;42.70;20.10;101020.00;;;;5102355;28;19916;-66
2022/10/10 08:17:24;;;;;;;;;;;21.40;42.80;20.10;101023.00;;;;5100094;28;19920;-66
2022/10/10 08:20:10;;;;;;;;;;;21.30;42.70;20.10;101018.00;;;;5099750;28;20346;-66
2022/10/10 08:22:56;;;;;;;;;;;21.30;42.80;20.10;101024.00;;;;5102374;28;19931;-66
2022/10/10 08:25:42;;;;;;;;;;;21.40;42.80;20.10;101024.00;;;;5100847;28;21253;-66
2022/10/10 08:28:28;;;;;;;;;;;21.40;42.90;20.10;101021.00;;;;5099131;28;20270;-66
2022/10/10 08:31:16;;;;;;;;;;;21.40;42.90;20.10;101020.00;;;;5099517;28;19927;-66
2022/10/10 08:34:02;;;;;;;;;;;21.40;42.80;20.10;101023.00;;;;5098897;28;20319;-66
2022/10/10 08:36:48;;;;;;;;;;;21.40;42.90;20.10;101023.00;;;;5106695;27;19984;-66
2022/10/10 08:39:34;;;;;;;;;;;21.40;42.90;20.10;101017.00;;;;5094458;28;20560;-66
2022/10/10 08:42:32;;;;;;;;;;;21.40;42.80;20.10;101003.00;;;;5101343;27;19927;-66
2022/10/10 08:45:25;;;;;;;;;;;21.40;42.90;20.10;101014.00;;;;5082627;28;19969;-66
2022/10/10 08:48:12;;;;;;;;;;;21.40;42.90;20.10;101012.00;;;;5096804;28;19916;-66
2022/10/10 08:51:01;;;;;;;;;;;21.30;42.80;20.10;101014.00;;;;5101688;28;19920;-66
2022/10/10 08:53:48;;;;;;;;;;;21.40;42.90;20.10;101014.00;;;;5108988;27;19924;-66
2022/10/10 08:56:34;;;;;;;;;;;21.40;42.90;20.10;101018.00;;;;5102970;28;19915;-66
2022/10/10 08:59:22;;;;;;;;;;;21.40;42.90;20.10;101015.00;;;;5106529;28;19924;-66
2022/10/10 09:02:37;;;;;;;;;;;21.40;42.90;20.10;101010.00;;;;5104460;28;20010;-66
2022/10/10 09:05:38;;;;;;;;;;;21.40;42.90;20.10;101015.00;;;;5094335;28;19924;-66
2022/10/10 09:08:32;;;;;;;;;;;21.40;42.90;20.10;101016.00;;;;5096438;28;19966;-66
2022/10/10 09:11:35;;;;;;;;;;;21.40;42.90;20.10;101017.00;;;;5109761;28;20553;-66
2022/10/10 09:14:46;;;;;;;;;;;21.40;43.00;20.10;101020.00;;;;5094464;28;20053;-66
2022/10/10 09:18:09;;;;;;;;;;;21.40;43.00;20.10;101012.00;;;;5096712;28;19924;-66
2022/10/10 09:21:15;;;;;;;;;;;21.40;43.00;20.10;101016.00;;;;5081726;28;20374;-66
2022/10/10 09:24:31;;;;;;;;;;;21.40;43.00;20.10;101021.00;;;;5078843;28;20034;-66
2022/10/10 09:27:26;;;;;;;;;;;21.40;43.00;20.10;101022.00;;;;5110219;28;19916;-66
2022/10/10 09:30:17;;;;;;;;;;;21.40;43.00;20.10;101020.00;;;;5111924;28;19931;-66
2022/10/10 09:33:08;;;;;;;;;;;21.40;43.10;20.10;101007.00;;;;5101182;28;20455;-66
2022/10/10 09:35:54;;;;;;;;;;;21.50;43.10;20.10;101008.00;;;;5094030;28;20358;-66
2022/10/10 09:38:48;;;;;;;;;;;21.40;43.10;20.10;101015.00;;;;5106930;27;19924;-66
2022/10/10 09:41:38;;;;;;;;;;;21.40;43.10;20.10;101007.00;;;;5100047;28;19923;-66
2022/10/10 09:44:24;;;;;;;;;;;21.40;43.10;20.20;101007.00;;;;5108859;27;20406;-66
2022/10/10 09:47:13;;;;;;;;;;;21.40;43.10;20.10;101011.00;;;;5091818;28;20550;-66
2022/10/10 09:49:59;;;;;;;;;;;21.40;43.10;20.10;101011.00;;;;5099770;27;19920;-66
2022/10/10 09:52:45;;;;;;;;;;;21.50;43.20;20.20;101010.00;;;;5109253;27;20384;-66
2022/10/10 09:55:36;;;;;;;;;;;21.50;43.20;20.20;101011.00;;;;5077741;28;20034;-66
2022/10/10 09:58:42;;;;;;;;;;;21.40;43.20;20.10;101011.00;;;;5108553;27;19947;-66
2022/10/10 10:01:32;;;;;;;;;;;21.50;43.20;20.10;101007.00;;;;5081354;28;19931;-66
2022/10/10 10:04:18;;;;;;;;;;;21.50;43.20;20.10;101010.00;;;;5076918;28;19916;-66
2022/10/10 10:07:25;;;;;;;;;;;21.50;43.20;20.10;101015.00;;;;5078280;28;20330;-76
2022/10/10 10:10:19;;;;;;;;;;;21.50;43.90;20.10;101024.00;;;;5100685;27;19917;-66
2022/10/10 10:13:11;;;;;;;;;;;21.50;43.30;20.10;101016.00;;;;5077456;28;20627;-66
2022/10/10 10:16:02;;;;;;;;;;;21.50;43.30;20.10;101017.00;;;;5081334;28;19916;-66
2022/10/10 10:18:48;;;;;;;;;;;21.50;43.30;20.10;101026.00;;;;5076342;28;19926;-66
2022/10/10 10:21:48;;;;;;;;;;;21.50;43.30;20.10;101015.00;;;;5080925;28;19923;-66
2022/10/10 10:24:38;;;;;;;;;;;21.50;43.30;20.10;101022.00;;;;5082628;28;19927;-66
2022/10/10 10:27:24;;;;;;;;;;;21.50;43.40;20.10;101017.00;;;;5107626;27;19931;-66
2022/10/10 10:30:22;;;;;;;;;;;21.50;43.40;20.20;101023.00;;;;5111132;27;20416;-66
2022/10/10 10:33:27;;;;;;;;;;;21.50;43.40;20.20;101023.00;;;;5094490;28;20377;-66
2022/10/10 10:36:33;;;;;;;;;;;21.50;43.40;20.20;101020.00;;;;5092240;28;19927;-66
2022/10/10 10:39:34;;;;;;;;;;;21.50;43.40;20.20;101024.00;;;;5082546;28;19924;-66
2022/10/10 10:42:26;;;;;;;;;;;21.50;43.40;20.20;101019.00;;;;5095217;28;19927;-66
2022/10/10 10:45:25;;;;;;;;;;;21.50;43.40;20.20;101016.00;;;;5095376;28;20079;-66
2022/10/10 10:48:17;;;;;;;;;;;21.50;43.50;20.20;101019.00;;;;5082073;28;19924;-66
2022/10/10 10:51:37;;;;;;;;;;;21.50;43.50;20.20;101017.00;;;;5086830;28;19915;-66
2022/10/10 10:54:45;;;;;;;;;;;21.50;43.50;20.20;101018.00;;;;5101030;28;20360;-66
2022/10/10 10:57:50;;;;;;;;;;;21.50;43.50;20.20;101014.00;;;;5074602;28;20362;-66
2022/10/10 11:00:50;;;;;;;;;;;21.60;43.60;20.20;101009.00;;;;5108682;27;19920;-66
2022/10/10 11:03:39;;;;;;;;;;;21.60;43.60;20.20;101021.00;;;;5106574;27;20014;-66
2022/10/10 11:06:37;;;;;;;;;;;21.60;43.60;20.20;101018.00;;;;5105209;28;19920;-66
2022/10/10 11:09:46;;;;;;;;;;;21.60;43.60;20.20;101019.00;;;;5103095;28;19916;-66
2022/10/10 11:12:50;;;;;;;;;;;21.60;43.60;20.20;101029.00;;;;5097788;28;20285;-66
2022/10/10 11:15:42;;;;;;;;;;;21.60;43.60;20.20;101024.00;;;;5090288;28;19939;-67
2022/10/10 11:18:31;;;;;;;;;;;21.60;43.60;20.20;101023.00;;;;5095143;28;19950;-66
2022/10/10 11:21:22;;;;;;;;;;;21.60;43.70;20.20;101025.00;;;;5093600;28;19927;-66
2022/10/10 11:24:14;;;;;;;;;;;21.60;44.30;20.30;101023.00;;;;5094737;28;20455;-66
2022/10/10 11:27:03;;;;;;;;;;;21.60;43.60;20.30;101027.00;;;;5096361;28;20365;-66
2022/10/10 11:30:13;;;;;;;;;;;21.60;43.70;20.30;101026.00;;;;5111914;27;19941;-66
2022/10/10 11:33:21;;;;;;;;;;;21.70;43.70;20.30;101027.00;;;;5084982;28;20370;-66
2022/10/10 11:36:24;;;;;;;;;;;21.60;43.70;20.30;101039.00;;;;5087643;28;19920;-66
2022/10/10 11:39:29;;;;;;;;;;;21.60;43.70;20.30;101036.00;;;;5079685;28;19968;-66
2022/10/10 11:42:21;;;;;;;;;;;21.70;43.80;20.30;101028.00;;;;5095420;27;19917;-66
2022/10/10 11:45:15;;;;;;;;;;;21.70;43.80;20.20;101029.00;;;;5053847;28;20391;-66
2022/10/10 11:48:11;;;;;;;;;;;21.60;43.80;20.20;101028.00;;;;5082789;28;20361;-66
2022/10/10 11:51:03;;;;;;;;;;;21.60;43.80;20.30;101045.00;;;;5081995;28;20281;-66
2022/10/10 11:53:49;;;;;;;;;;;21.70;43.80;20.30;101029.00;;;;5086520;28;20019;-66
2022/10/10 11:56:40;;;;;;;;;;;21.70;43.80;20.30;101041.00;;;;5088714;28;19922;-66
2022/10/10 11:59:35;;;;;;;;;;;21.70;43.90;20.30;101046.00;;;;5105309;27;19924;-66
2022/10/10 12:02:25;;;;;;;;;;;21.70;43.90;20.30;101055.00;;;;5096012;28;19919;-66
2022/10/10 12:05:24;;;;;;;;;;;21.70;43.90;20.30;101047.00;;;;5098689;28;19920;-66
2022/10/10 12:08:17;;;;;;;;;;;21.70;43.80;20.30;101051.00;;;;5093457;27;19926;-66
2022/10/10 12:11:08;;;;;;;;;;;21.70;43.90;20.30;101053.00;;;;5099054;28;19920;-66
2022/10/10 12:13:56;;;;;;;;;;;21.70;43.90;20.30;101048.00;;;;5113239;27;19970;-66
2022/10/10 12:16:42;;;;;;;;;;;21.70;43.90;20.30;101047.00;;;;5078874;28;19966;-66
2022/10/10 12:19:28;;;;;;;;;;;21.70;43.90;20.30;101051.00;;;;5100751;27;19928;-66
2022/10/10 12:22:25;;;;;;;;;;;21.70;43.90;20.30;101044.00;;;;5068879;28;19916;-66
2022/10/10 12:25:24;;;;;;;;;;;21.70;43.90;20.30;101043.00;;;;5104422;27;20277;-66
2022/10/10 12:28:12;;;;;;;;;;;21.70;43.90;20.30;101034.00;;;;5076942;28;19924;-66
2022/10/10 12:31:01;;;;;;;;;;;21.70;43.90;20.30;101043.00;;;;5077862;28;19917;-66
2022/10/10 12:33:47;;;;;;;;;;;21.70;43.90;20.30;101036.00;;;;5075739;28;19917;-66
2022/10/10 12:36:42;;;;;;;;;;;21.70;43.80;20.40;101039.00;;;;5079317;28;20369;-66
2022/10/10 12:39:31;;;;;;;;;;;21.80;43.90;20.40;101042.00;;;;5089401;27;19931;-66
2022/10/10 12:42:28;;;;;;;;;;;21.70;43.90;20.40;101034.00;;;;5082321;28;19924;-66
2022/10/10 12:45:30;;;;;;;;;;;21.80;44.70;20.40;101043.00;;;;5065549;28;19924;-66
2022/10/10 12:48:17;;;;;;;;;;;21.80;44.00;20.40;101037.00;;;;5084921;28;19917;-66
2022/10/10 12:51:03;;;;;;;;;;;21.80;44.00;20.40;101042.00;;;;5072928;28;20284;-66
2022/10/10 12:53:52;;;;;;;;;;;21.80;44.00;20.40;101032.00;;;;5075919;28;20469;-66
2022/10/10 12:56:41;;;;;;;;;;;21.80;44.00;20.40;101041.00;;;;5087353;28;19942;-66
2022/10/10 12:59:27;;;;;;;;;;;21.80;44.00;20.40;101042.00;;;;5065644;28;19924;-66
2022/10/10 13:02:33;;;;;;;;;;;21.80;44.00;20.40;101045.00;;;;5085900;28;19916;-66
2022/10/10 13:05:25;;;;;;;;;;;21.80;44.00;20.40;101044.00;;;;5066806;28;19927;-66
2022/10/10 13:08:13;;;;;;;;;;;21.80;44.00;20.40;101046.00;;;;5085604;28;19923;-66
2022/10/10 13:11:10;;;;;;;;;;;21.80;44.00;20.40;101051.00;;;;5059957;28;20277;-66
2022/10/10 13:13:56;;;;;;;;;;;21.80;44.00;20.40;101046.00;;;;5088357;27;19916;-66
2022/10/10 13:16:42;;;;;;;;;;;21.80;44.00;20.40;101044.00;;;;5087970;28;19920;-66
2022/10/10 13:19:28;;;;;;;;;;;21.80;44.00;20.40;101054.00;;;;5088447;28;19921;-66
2022/10/10 13:22:15;;;;;;;;;;;21.80;44.00;20.40;101049.00;;;;5091478;27;19920;-66
2022/10/10 13:25:04;;;;;;;;;;;21.80;44.00;20.40;101048.00;;;;5068155;28;19920;-66
2022/10/10 13:27:50;;;;;;;;;;;21.80;44.00;20.40;101061.00;;;;5073420;28;19999;-66
2022/10/10 13:30:36;;;;;;;;;;;21.80;44.00;20.40;101060.00;;;;5076326;28;19916;-66
2022/10/10 13:33:22;;;;;;;;;;;21.80;44.00;20.50;101058.00;;;;5079438;28;20527;-66
2022/10/10 13:36:17;;;;;;;;;;;21.90;44.00;20.50;101066.00;;;;5060289;28;19916;-66
2022/10/10 13:39:03;;;;;;;;;;;21.80;44.00;20.50;101057.00;;;;5073258;28;20450;-66
2022/10/10 13:41:50;;;;;;;;;;;21.90;44.00;20.50;101064.00;;;;5082007;28;19928;-66